KCAO/CAO METAR and TAF weather

Enter ICAO airport designator
Station Type Date Time Source
KCAO METAR 2020/10/20 16:55 UTC NOAA

KCAO 201655Z AUTO 17007KT 7SM FEW002 24/M06 A2997 RMK AO2 SLP101 T02441061


Station Type Date Time Source
KCAO Decoded METAR 2020/10/20 16:55 UTC NOAA

CLAYTON MUNICIPAL AIRPARK, NM, United States (KCAO) 36-27N 103-09W 1514M
Oct 20, 2020 - 12:55 PM EDT / 2020.10.20 1655 UTC
Wind: from the S (170 degrees) at 8 MPH (7 KT):0
Visibility: 7 mile(s):0
Sky conditions: mostly clear
Temperature: 75.9 F (24.4 C)
Dew Point: 21.0 F (-6.1 C)
Relative Humidity: 12%
Pressure (altimeter): 29.97 in. Hg (1014 hPa)
ob: KCAO 201655Z AUTO 17007KT 7SM FEW002 24/M06 A2997 RMK AO2 SLP101 T02441061
cycle: 17

Station Type Date Time Source
KCAO TAF UTC NOAA

Error!

Example: see airport list